Time;durP1;ratioP1;P1;durP2;ratioP2;P2;SDS_P1;SDS_P2;PMS_P1;PMS_P2;Temp;Humidity;BMP_temperature;BMP_pressure;BME280_temperature;BME280_humidity;BME280_pressure;Samples;Min_cycle;Max_cycle;Signal;HPM_P1;HPM_P2
2023/01/16 00:01:38;;;;;;;3.60;0.80;;;18.40;77.50;;;;;;5070699;28;20205;-64
2023/01/16 00:04:26;;;;;;;0.90;0.65;;;18.40;77.40;;;;;;5070719;28;20240;-65
2023/01/16 00:07:14;;;;;;;0.77;0.70;;;18.50;93.80;;;;;;5070262;28;20294;-65
2023/01/16 00:10:03;;;;;;;0.93;0.70;;;18.50;77.30;;;;;;5069933;28;20279;-63
2023/01/16 00:12:51;;;;;;;1.23;0.70;;;18.50;77.10;;;;;;5070733;28;20293;-62
2023/01/16 00:15:43;;;;;;;0.70;0.70;;;18.50;76.90;;;;;;5070812;28;20692;-62
2023/01/16 00:18:33;;;;;;;1.25;0.77;;;18.60;76.50;;;;;;5071265;28;20304;-61
2023/01/16 00:21:25;;;;;;;1.02;0.60;;;18.50;76.20;;;;;;5070606;28;20640;-61
2023/01/16 00:24:13;;;;;;;1.15;0.70;;;18.60;76.50;;;;;;5070030;28;20193;-62
2023/01/16 00:27:01;;;;;;;0.95;0.85;;;18.50;90.30;;;;;;5070440;28;20216;-62
2023/01/16 00:29:49;;;;;;;1.15;0.70;;;18.60;75.40;;;;;;5070198;28;20289;-61
2023/01/16 00:32:37;;;;;;;1.17;0.70;;;18.50;74.40;;;;;;5070595;28;20621;-65
2023/01/16 00:35:27;;;;;;;0.70;0.70;;;18.50;74.80;;;;;;5070390;28;20258;-64
2023/01/16 00:38:15;;;;;;;1.75;0.65;;;18.40;74.70;;;;;;5071237;28;20216;-64
2023/01/16 00:41:03;;;;;;;0.82;0.77;;;18.30;75.30;;;;;;5069313;28;20668;-64
2023/01/16 00:43:52;;;;;;;0.98;0.60;;;18.30;76.10;;;;;;5070997;28;20234;-65
2023/01/16 00:46:40;;;;;;;1.10;0.70;;;18.20;77.20;;;;;;5071974;28;20309;-63
2023/01/16 00:49:28;;;;;;;0.60;0.60;;;18.20;77.20;;;;;;5074718;28;20204;-64
2023/01/16 00:52:17;;;;;;;1.10;0.95;;;18.10;77.40;;;;;;5074626;28;20690;-64
2023/01/16 00:55:06;;;;;;;0.60;0.60;;;18.20;77.60;;;;;;5074154;28;20283;-64
2023/01/16 00:57:54;;;;;;;0.75;0.70;;;18.30;77.60;;;;;;5074136;28;20227;-65
2023/01/16 01:00:42;;;;;;;1.00;0.90;;;18.40;77.50;;;;;;5073641;28;20200;-65
2023/01/16 01:03:30;;;;;;;0.88;0.63;;;18.40;77.30;;;;;;5074700;28;20204;-65
2023/01/16 01:06:19;;;;;;;0.80;0.70;;;18.50;77.30;;;;;;5074001;28;20219;-64
2023/01/16 01:09:08;;;;;;;1.98;0.70;;;18.50;77.10;;;;;;5073928;28;20260;-64
2023/01/16 01:11:57;;;;;;;0.93;0.63;;;18.60;77.10;;;;;;5074663;28;20261;-64
2023/01/16 01:14:45;;;;;;;0.85;0.60;;;18.60;76.90;;;;;;5073454;28;20253;-64
2023/01/16 01:17:33;;;;;;;0.70;0.70;;;18.60;76.70;;;;;;5073009;28;20327;-64
2023/01/16 01:20:21;;;;;;;1.50;0.73;;;18.60;76.60;;;;;;5074100;28;20656;-64
2023/01/16 01:23:09;;;;;;;0.90;0.60;;;18.60;76.60;;;;;;5073551;28;20201;-62
2023/01/16 01:25:59;;;;;;;0.77;0.60;;;18.60;76.40;;;;;;5074381;28;20644;-65
2023/01/16 01:28:47;;;;;;;1.25;0.70;;;18.60;76.30;;;;;;5073499;28;20208;-65
2023/01/16 01:31:36;;;;;;;0.70;0.70;;;18.70;76.30;;;;;;5072828;28;20282;-62
2023/01/16 01:34:24;;;;;;;1.00;0.65;;;18.70;76.30;;;;;;5073372;28;20201;-59
2023/01/16 01:37:12;;;;;;;0.98;0.60;;;18.70;92.80;;;;;;5074140;28;20809;-60
2023/01/16 01:40:00;;;;;;;0.60;0.60;;;18.70;75.70;;;;;;5072338;28;20290;-65
2023/01/16 01:42:52;;;;;;;1.50;0.60;;;18.60;75.90;;;;;;5073574;28;20203;-62
2023/01/16 01:45:43;;;;;;;1.50;0.65;;;18.60;75.90;;;;;;5073554;28;20234;-64
2023/01/16 01:48:39;;;;;;;0.60;0.60;;;18.60;76.00;;;;;;5073012;28;20228;-63
2023/01/16 01:51:30;;;;;;;0.70;0.60;;;18.60;76.20;;;;;;5072674;28;20275;-62
2023/01/16 01:54:23;;;;;;;0.60;0.60;;;18.50;75.90;;;;;;5073896;28;20265;-61
2023/01/16 01:57:15;;;;;;;0.70;0.70;;;18.60;93.10;;;;;;5072585;28;20326;-62
2023/01/16 02:00:09;;;;;;;0.60;0.60;;;18.50;76.20;;;;;;5072446;28;20286;-64
2023/01/16 02:03:02;;;;;;;1.13;0.60;;;18.40;76.20;;;;;;5072075;28;20193;-65
2023/01/16 02:05:52;;;;;;;0.70;0.70;;;18.30;76.70;;;;;;5072681;28;20207;-65
2023/01/16 02:08:44;;;;;;;0.60;0.60;;;18.30;76.90;;;;;;5072413;28;20224;-65
2023/01/16 02:11:36;;;;;;;0.73;0.60;;;18.20;77.00;;;;;;5071637;28;20673;-64
2023/01/16 02:14:27;;;;;;;0.60;0.60;;;18.30;77.10;;;;;;5073632;28;20343;-63
2023/01/16 02:20:26;;;;;;;0.75;0.60;;;18.40;77.10;;;;;;5072735;28;20200;-65
2023/01/16 02:23:47;;;;;;;1.00;0.60;;;18.40;76.90;;;;;;5072066;28;20280;-62
2023/01/16 02:27:14;;;;;;;0.60;0.60;;;18.40;76.80;;;;;;5072747;28;20279;-64
2023/01/16 02:30:29;;;;;;;1.10;0.70;;;18.50;76.70;;;;;;5072230;28;20280;-62
2023/01/16 02:33:28;;;;;;;0.63;0.63;;;18.50;76.60;;;;;;5064037;28;20286;-64
2023/01/16 02:36:20;;;;;;;1.85;0.60;;;18.50;76.40;;;;;;5071110;28;20212;-64
2023/01/16 02:39:18;;;;;;;1.15;0.70;;;18.60;76.40;;;;;;5072051;28;20217;-62
2023/01/16 02:42:17;;;;;;;0.60;0.50;;;18.60;76.20;;;;;;5072651;28;20281;-65
2023/01/16 02:45:14;;;;;;;2.30;0.70;;;18.70;76.20;;;;;;5071527;28;20250;-61
2023/01/16 02:48:09;;;;;;;1.05;0.60;;;18.70;76.00;;;;;;5072603;28;20224;-61
2023/01/16 02:51:05;;;;;;;0.63;0.63;;;18.70;76.00;;;;;;5072766;28;20201;-61
2023/01/16 02:53:59;;;;;;;0.90;0.70;;;18.70;75.80;;;;;;5072364;28;20201;-60
2023/01/16 02:56:57;;;;;;;0.60;0.60;;;18.80;74.90;;;;;;5072327;28;20330;-60
2023/01/16 02:59:46;;;;;;;0.85;0.50;;;18.70;75.30;;;;;;5072193;28;20732;-61
2023/01/16 03:02:34;;;;;;;0.68;0.63;;;18.70;75.00;;;;;;5071308;28;20203;-62
2023/01/16 03:05:23;;;;;;;0.55;0.55;;;18.60;74.90;;;;;;5051713;28;20205;-62
2023/01/16 03:08:28;;;;;;;0.70;0.70;;;18.60;74.20;;;;;;5051379;28;20240;-63
2023/01/16 03:11:23;;;;;;;1.15;0.60;;;18.60;74.00;;;;;;5050931;28;20280;-65
2023/01/16 03:14:28;;;;;;;0.77;0.68;;;18.50;73.80;;;;;;5051667;28;20302;-63
2023/01/16 03:17:31;;;;;;;1.30;0.60;;;18.40;74.10;;;;;;5050841;28;20663;-64
2023/01/16 03:20:33;;;;;;;0.60;0.60;;;18.40;75.90;;;;;;5051439;28;20560;-64
2023/01/16 03:23:32;;;;;;;0.75;0.60;;;18.20;76.30;;;;;;5051543;28;20624;-65
2023/01/16 03:26:27;;;;;;;0.63;0.60;;;18.30;76.70;;;;;;5050668;28;20207;-64
2023/01/16 03:29:25;;;;;;;2.25;0.95;;;18.20;76.60;;;;;;5051126;28;20225;-61
2023/01/16 03:32:21;;;;;;;1.40;0.60;;;18.30;76.80;;;;;;5050929;28;20206;-64
2023/01/16 03:35:14;;;;;;;1.77;0.77;;;18.30;76.80;;;;;;5051290;28;20233;-63
2023/01/16 03:38:06;;;;;;;1.52;0.90;;;18.30;76.80;;;;;;5051068;28;20213;-63
2023/01/16 03:40:58;;;;;;;0.80;0.50;;;18.30;76.70;;;;;;5050157;28;20197;-65
2023/01/16 03:43:51;;;;;;;0.55;0.55;;;18.40;76.60;;;;;;5050956;28;20213;-64
2023/01/16 03:46:44;;;;;;;0.60;0.60;;;18.50;76.50;;;;;;5050390;28;20201;-65
2023/01/16 03:49:37;;;;;;;0.80;0.80;;;18.50;76.40;;;;;;5050706;28;20296;-65
2023/01/16 03:52:31;;;;;;;0.60;0.60;;;18.50;76.30;;;;;;5050462;28;20287;-64
2023/01/16 03:55:25;;;;;;;0.50;0.50;;;18.50;76.20;;;;;;5050795;28;20844;-65
2023/01/16 03:58:20;;;;;;;0.60;0.60;;;18.60;76.20;;;;;;5051357;28;20253;-64
2023/01/16 04:01:17;;;;;;;0.70;0.60;;;18.60;76.20;;;;;;5050637;28;20197;-65
2023/01/16 04:04:09;;;;;;;0.60;0.60;;;18.60;76.00;;;;;;5059984;28;20192;-64
2023/01/16 04:07:02;;;;;;;1.40;0.98;;;18.80;90.50;;;;;;5070717;28;20201;-61
2023/01/16 04:09:54;;;;;;;0.88;0.50;;;18.50;75.50;;;;;;5069457;28;20671;-61
2023/01/16 04:12:48;;;;;;;0.63;0.60;;;18.60;74.70;;;;;;5070770;28;20211;-62
2023/01/16 04:15:42;;;;;;;1.08;0.60;;;18.60;75.50;;;;;;5069824;28;20200;-63
2023/01/16 04:18:33;;;;;;;0.63;0.60;;;18.60;75.60;;;;;;5069949;28;20220;-64
2023/01/16 04:21:26;;;;;;;1.95;0.60;;;18.50;75.60;;;;;;5069474;28;20197;-64
2023/01/16 04:24:16;;;;;;;0.68;0.60;;;18.60;75.70;;;;;;5071674;28;20196;-64
2023/01/16 04:27:04;;;;;;;1.55;0.70;;;18.60;90.50;;;;;;5070323;28;20215;-64
2023/01/16 04:29:52;;;;;;;0.60;0.60;;;18.30;75.40;;;;;;5069471;28;20311;-61
2023/01/16 04:32:42;;;;;;;0.60;0.60;;;18.40;75.30;;;;;;5069833;28;20284;-63
2023/01/16 04:35:30;;;;;;;0.90;0.65;;;18.30;74.10;;;;;;5070134;28;20232;-64
2023/01/16 04:38:18;;;;;;;0.70;0.70;;;18.30;73.70;;;;;;5070354;28;20223;-61
2023/01/16 04:41:06;;;;;;;1.70;0.90;;;18.30;74.50;;;;;;5068873;28;20199;-64
2023/01/16 04:43:55;;;;;;;1.60;0.57;;;18.10;75.80;;;;;;5070409;28;20258;-64
2023/01/16 04:46:44;;;;;;;0.60;0.60;;;18.10;76.40;;;;;;5070892;28;20203;-64
2023/01/16 04:49:33;;;;;;;0.77;0.70;;;18.20;76.80;;;;;;5070458;28;20615;-63
2023/01/16 04:52:21;;;;;;;0.82;0.75;;;18.10;76.80;;;;;;5070295;28;20573;-64
2023/01/16 04:55:10;;;;;;;0.65;0.65;;;18.20;76.70;;;;;;5070183;28;20239;-62
2023/01/16 04:57:58;;;;;;;0.80;0.60;;;18.30;76.60;;;;;;5069462;28;20235;-64
2023/01/16 05:00:46;;;;;;;0.55;0.55;;;18.40;76.50;;;;;;5069996;28;20208;-61
2023/01/16 05:03:34;;;;;;;0.60;0.55;;;18.50;76.50;;;;;;5070412;28;20222;-63
2023/01/16 05:06:23;;;;;;;2.25;0.70;;;18.50;76.20;;;;;;5070480;28;20254;-65
2023/01/16 05:09:11;;;;;;;0.73;0.50;;;18.50;76.10;;;;;;5069663;28;20225;-62
2023/01/16 05:11:59;;;;;;;0.70;0.60;;;18.60;75.90;;;;;;5070650;28;20201;-64
2023/01/16 05:14:48;;;;;;;1.30;0.73;;;18.70;75.80;;;;;;5070666;28;20204;-66
2023/01/16 05:17:35;;;;;;;0.60;0.60;;;18.80;75.70;;;;;;5069367;28;20303;-65
2023/01/16 05:20:23;;;;;;;0.70;0.70;;;18.80;75.50;;;;;;5070172;28;20637;-62
2023/01/16 05:23:13;;;;;;;0.57;0.55;;;18.90;75.40;;;;;;5069567;28;20201;-63
2023/01/16 05:26:01;;;;;;;0.85;0.60;;;18.90;75.40;;;;;;5070786;28;20205;-61
2023/01/16 05:28:49;;;;;;;1.20;0.60;;;18.90;75.20;;;;;;5069356;28;20362;-64
2023/01/16 05:31:37;;;;;;;0.60;0.52;;;18.80;75.10;;;;;;5070622;28;20205;-62
2023/01/16 05:34:25;;;;;;;0.98;0.65;;;18.90;75.20;;;;;;5074782;28;20207;-61
2023/01/16 05:37:13;;;;;;;1.48;0.70;;;18.80;92.40;;;;;;5073898;28;20212;-61
2023/01/16 05:40:02;;;;;;;1.10;0.68;;;18.80;74.90;;;;;;5074041;28;20200;-60
2023/01/16 05:42:50;;;;;;;1.33;0.70;;;18.80;74.90;;;;;;5073580;28;20196;-62
2023/01/16 05:45:39;;;;;;;0.60;0.60;;;18.70;74.60;;;;;;5074382;28;20197;-61
2023/01/16 05:48:28;;;;;;;0.85;0.68;;;18.80;74.40;;;;;;5073116;28;20216;-62
2023/01/16 05:51:16;;;;;;;0.60;0.60;;;18.70;74.10;;;;;;5073620;28;20209;-63
2023/01/16 05:54:04;;;;;;;0.70;0.70;;;18.70;74.80;;;;;;5072533;28;20232;-62
2023/01/16 05:56:54;;;;;;;0.60;0.60;;;18.60;74.90;;;;;;5073101;28;20196;-62
2023/01/16 05:59:45;;;;;;;0.60;0.60;;;18.70;75.10;;;;;;5073469;28;20193;-64
2023/01/16 06:02:33;;;;;;;0.88;0.55;;;18.60;75.00;;;;;;5073387;28;20211;-61
2023/01/16 06:05:21;;;;;;;1.55;1.30;;;18.60;75.10;;;;;;5053625;28;20488;-65
2023/01/16 06:08:10;;;;;;;1.35;0.80;;;18.20;74.50;;;;;;5052752;28;20217;-64
2023/01/16 06:10:58;;;;;;;2.03;0.80;;;18.40;75.00;;;;;;5053619;28;20290;-63
2023/01/16 06:13:48;;;;;;;2.70;0.80;;;18.60;74.50;;;;;;5052120;28;20209;-63
2023/01/16 06:16:36;;;;;;;2.10;0.70;;;18.30;74.90;;;;;;5052577;28;20280;-63
2023/01/16 06:19:24;;;;;;;1.10;0.70;;;18.30;74.80;;;;;;5051850;28;20209;-64
2023/01/16 06:22:13;;;;;;;3.35;1.02;;;18.20;75.80;;;;;;5053263;28;20198;-64
2023/01/16 06:25:01;;;;;;;5.53;0.80;;;18.10;76.00;;;;;;5052302;28;20667;-64
2023/01/16 06:27:49;;;;;;;7.43;0.85;;;17.90;76.00;;;;;;5052570;28;20217;-64
2023/01/16 06:30:39;;;;;;;1.88;0.70;;;18.20;76.30;;;;;;5051373;28;20711;-64
2023/01/16 06:33:27;;;;;;;4.90;0.88;;;18.30;76.40;;;;;;5051528;28;20211;-65
2023/01/16 06:36:15;;;;;;;1.60;1.38;;;18.40;76.30;;;;;;5051654;28;20305;-63
2023/01/16 06:39:03;;;;;;;4.70;1.17;;;18.40;76.10;;;;;;5051645;28;20243;-64
2023/01/16 06:41:51;;;;;;;2.58;1.33;;;19.30;76.80;;;;;;5050681;28;20291;-65
2023/01/16 06:44:39;;;;;;;5.53;1.00;;;18.50;75.80;;;;;;5069577;28;20280;-64
2023/01/16 06:47:28;;;;;;;4.00;1.08;;;18.60;75.70;;;;;;5052587;28;20305;-63
2023/01/16 06:50:16;;;;;;;4.93;1.50;;;18.70;75.70;;;;;;5052007;28;20219;-63
2023/01/16 06:53:04;;;;;;;5.45;1.00;;;18.60;75.40;;;;;;5055690;28;20192;-65
2023/01/16 06:55:52;;;;;;;3.83;1.20;;;18.70;75.40;;;;;;5071306;28;20673;-63
2023/01/16 06:58:40;;;;;;;2.55;1.00;;;18.60;75.10;;;;;;5069827;28;20312;-63
2023/01/16 07:01:28;;;;;;;3.35;0.88;;;18.90;75.40;;;;;;5062136;28;20275;-61
2023/01/16 07:04:18;;;;;;;4.22;1.00;;;18.80;75.20;;;;;;5070537;28;20212;-64
2023/01/16 07:07:06;;;;;;;2.65;1.13;;;19.10;92.50;;;;;;5070011;28;20212;-65
2023/01/16 07:09:54;;;;;;;6.28;1.08;;;18.90;75.40;;;;;;5070409;28;20302;-64
2023/01/16 07:12:42;;;;;;;2.83;0.88;;;18.90;75.40;;;;;;5070715;28;20201;-64
2023/01/16 07:25:01;;;;;;;4.80;1.30;;;19.40;75.00;;;;;;5070542;28;20205;-61
2023/01/16 07:27:51;;;;;;;4.38;0.95;;;19.50;75.00;;;;;;5071713;28;20278;-65
2023/01/16 07:30:39;;;;;;;6.90;1.77;;;19.60;74.80;;;;;;5071547;28;20212;-62
2023/01/16 07:33:27;;;;;;;5.00;1.40;;;19.70;74.70;;;;;;5071743;28;20303;-61
2023/01/16 07:36:16;;;;;;;4.88;1.13;;;19.80;74.60;;;;;;5071462;28;20201;-60
2023/01/16 07:39:05;;;;;;;9.68;1.80;;;19.90;74.40;;;;;;5070173;28;20714;-60
2023/01/16 07:41:53;;;;;;;5.88;1.52;;;20.00;74.30;;;;;;5071115;28;20719;-60
2023/01/16 07:44:45;;;;;;;8.43;2.30;;;20.00;74.00;;;;;;5071210;28;20588;-59
2023/01/16 07:47:34;;;;;;;9.43;2.30;;;20.10;74.00;;;;;;5071936;28;20292;-60
2023/01/16 07:50:22;;;;;;;9.80;2.60;;;20.10;73.90;;;;;;5071574;28;20216;-60
2023/01/16 07:53:11;;;;;;;15.90;2.70;;;20.20;74.40;;;;;;5071431;28;20207;-59
2023/01/16 07:56:02;;;;;;;11.95;2.75;;;20.30;73.70;;;;;;5071089;28;20306;-59
2023/01/16 07:58:54;;;;;;;15.02;3.85;;;20.40;73.70;;;;;;5072323;28;20225;-60
2023/01/16 08:01:42;;;;;;;14.18;2.30;;;20.40;73.50;;;;;;5072776;28;20295;-58
2023/01/16 08:04:31;;;;;;;12.48;2.88;;;20.40;73.30;;;;;;5072321;28;20197;-60
2023/01/16 08:07:19;;;;;;;14.55;3.35;;;20.60;73.30;;;;;;5072138;28;20313;-59
2023/01/16 08:10:08;;;;;;;14.30;3.20;;;20.50;73.10;;;;;;5072219;28;20224;-58
2023/01/16 08:12:58;;;;;;;15.85;3.90;;;20.60;73.00;;;;;;5072250;28;20207;-58
2023/01/16 08:15:46;;;;;;;17.48;3.45;;;20.80;73.10;;;;;;5071751;28;20204;-58
2023/01/16 08:18:34;;;;;;;12.15;3.17;;;20.80;73.00;;;;;;5071607;28;20303;-58
2023/01/16 08:21:22;;;;;;;17.75;4.15;;;20.80;72.80;;;;;;5072159;28;20685;-59
2023/01/16 08:24:12;;;;;;;24.05;5.95;;;20.90;72.80;;;;;;5072281;28;20590;-59
2023/01/16 08:27:00;;;;;;;25.23;5.03;;;20.90;72.70;;;;;;5072564;28;20669;-59
2023/01/16 08:29:49;;;;;;;25.52;4.35;;;20.90;72.60;;;;;;5072404;28;20217;-58
2023/01/16 08:32:37;;;;;;;25.30;4.88;;;20.90;72.50;;;;;;5072123;28;20280;-58
2023/01/16 08:35:26;;;;;;;31.33;5.75;;;20.90;72.30;;;;;;5072522;28;20283;-60
2023/01/16 08:38:14;;;;;;;26.17;4.78;;;21.10;72.40;;;;;;5072149;28;20240;-59
2023/01/16 08:41:02;;;;;;;25.17;5.80;;;21.10;72.30;;;;;;5072087;28;20279;-59
2023/01/16 08:53:11;;;;;;;30.15;5.07;;;21.30;72.10;;;;;;5052144;28;20208;-60
2023/01/16 08:55:59;;;;;;;27.95;6.15;;;21.30;71.90;;;;;;5056557;28;20291;-60
2023/01/16 08:58:47;;;;;;;34.15;6.43;;;21.40;72.30;;;;;;5066606;28;20306;-60
2023/01/16 09:01:35;;;;;;;32.42;6.13;;;21.40;72.40;;;;;;5065532;28;20212;-59
2023/01/16 09:04:25;;;;;;;24.08;5.72;;;21.40;72.60;;;;;;5073178;28;20208;-60
2023/01/16 09:07:13;;;;;;;21.83;5.28;;;21.50;72.70;;;;;;5073383;28;20295;-57
2023/01/16 09:10:01;;;;;;;27.73;6.68;;;21.40;72.40;;;;;;5075648;28;20275;-58
2023/01/16 09:15:55;;;;;;;32.72;7.63;;;21.40;72.30;;;;;;5073951;28;20668;-59
2023/01/16 09:18:43;;;;;;;21.83;5.20;;;21.40;72.40;;;;;;5071644;28;20303;-59
2023/01/16 09:21:32;;;;;;;26.27;5.45;;;21.30;72.40;;;;;;5073772;28;20204;-58
2023/01/16 09:24:20;;;;;;;27.63;5.90;;;21.40;72.50;;;;;;5075847;28;20200;-59
2023/01/16 09:27:09;;;;;;;33.70;8.15;;;21.60;90.70;;;;;;5075967;28;20200;-58
2023/01/16 09:29:58;;;;;;;30.50;7.75;;;21.40;72.30;;;;;;5075082;28;20639;-59
2023/01/16 09:32:47;;;;;;;33.33;5.25;;;21.40;72.40;;;;;;5076339;28;20294;-60
2023/01/16 09:35:35;;;;;;;21.90;5.05;;;21.40;72.30;;;;;;5076244;28;20210;-59
2023/01/16 09:38:25;;;;;;;30.60;6.07;;;21.50;72.40;;;;;;5076402;28;20603;-60
2023/01/16 09:43:35;;;;;;;32.17;7.72;;;21.50;72.30;;;;;;5075011;28;20286;-59
2023/01/16 09:44:25;;;;;;;30.13;6.22;;;21.50;72.20;;;;;;5075849;28;20216;-59
2023/01/16 09:47:13;;;;;;;24.17;5.78;;;21.80;90.70;;;;;;5075359;28;20235;-59
2023/01/16 09:50:06;;;;;;;32.78;6.68;;;21.50;72.00;;;;;;5074406;28;20200;-59
2023/01/16 09:59:21;;;;;;;24.00;6.43;;;21.70;72.10;;;;;;5074244;28;20269;-58
2023/01/16 10:02:16;;;;;;;33.22;6.15;;;21.80;72.00;;;;;;5071739;28;20188;-58
2023/01/16 10:05:06;;;;;;;32.30;6.03;;;21.70;71.90;;;;;;5074702;28;20199;-57
2023/01/16 10:08:03;;;;;;;28.98;6.80;;;21.70;71.80;;;;;;5066706;28;20225;-58
2023/01/16 10:10:55;;;;;;;22.92;5.53;;;21.80;71.80;;;;;;5074300;28;20752;-58
2023/01/16 10:14:13;;;;;;;26.88;6.60;;;22.20;72.20;;;;;;5073868;28;20214;-59
2023/01/16 10:17:15;;;;;;;20.88;4.88;;;21.80;71.60;;;;;;5073289;28;20208;-58
2023/01/16 10:20:24;;;;;;;28.50;6.53;;;21.90;71.60;;;;;;5075049;28;20208;-59
2023/01/16 10:23:35;;;;;;;22.00;5.22;;;21.90;71.80;;;;;;5074076;28;20247;-59
2023/01/16 10:26:29;;;;;;;20.25;5.32;;;21.90;71.80;;;;;;5073847;28;20250;-59
2023/01/16 10:29:28;;;;;;;27.17;5.43;;;21.90;71.70;;;;;;5073434;28;20299;-59
2023/01/16 10:32:24;;;;;;;18.02;5.47;;;22.00;71.70;;;;;;5073541;28;20319;-59
2023/01/16 10:35:17;;;;;;;17.20;4.70;;;22.00;71.80;;;;;;5072768;28;20201;-59
2023/01/16 10:38:24;;;;;;;20.77;5.18;;;21.90;71.40;;;;;;5074223;28;20266;-59
2023/01/16 10:50:44;;;;;;;21.77;5.13;;;22.00;71.40;;;;;;5070835;28;20228;-59
2023/01/16 10:53:33;;;;;;;22.15;4.43;;;21.90;71.30;;;;;;5072841;28;20337;-59
2023/01/16 10:56:21;;;;;;;20.13;4.20;;;22.00;71.50;;;;;;5064572;28;20255;-59
2023/01/16 10:59:12;;;;;;;21.70;5.00;;;22.00;71.40;;;;;;5071728;28;20224;-59
2023/01/16 11:02:16;;;;;;;25.02;4.65;;;21.90;71.40;;;;;;5071043;28;20421;-59
2023/01/16 11:05:23;;;;;;;22.58;4.47;;;22.10;71.40;;;;;;5072273;28;20193;-58
2023/01/16 11:08:13;;;;;;;24.23;4.72;;;22.10;71.40;;;;;;5073020;28;20224;-65
2023/01/16 11:11:02;;;;;;;13.50;3.83;;;22.10;71.20;;;;;;5070647;28;20220;-59
2023/01/16 11:20:04;;;;;;;23.85;4.22;;;22.00;71.20;;;;;;5070805;28;20193;-59
2023/01/16 11:22:58;;;;;;;22.13;4.22;;;22.00;71.30;;;;;;5071646;28;20263;-59
2023/01/16 11:25:48;;;;;;;14.45;4.10;;;22.00;71.40;;;;;;5067229;28;20200;-59
2023/01/16 11:28:37;;;;;;;19.75;3.65;;;22.00;71.30;;;;;;5071712;28;20217;-59
2023/01/16 11:31:30;;;;;;;13.18;3.35;;;22.00;71.40;;;;;;5070129;28;20214;-59
2023/01/16 11:34:20;;;;;;;11.68;3.30;;;22.10;71.40;;;;;;5072801;28;20199;-59
2023/01/16 11:37:13;;;;;;;13.52;3.92;;;22.20;90.00;;;;;;5071649;28;20279;-60
2023/01/16 11:40:03;;;;;;;12.73;3.90;;;22.10;71.30;;;;;;5070523;28;20197;-59
2023/01/16 11:46:08;;;;;;;9.45;3.92;;;22.20;71.20;;;;;;5070493;28;20196;-60
2023/01/16 11:48:58;;;;;;;15.27;4.07;;;22.20;71.20;;;;;;5071013;28;20220;-60
2023/01/16 11:51:53;;;;;;;16.92;3.30;;;22.20;71.00;;;;;;5069031;28;20219;-59
2023/01/16 11:54:42;;;;;;;10.68;2.90;;;22.20;71.10;;;;;;5071269;28;20266;-59
2023/01/16 11:57:44;;;;;;;12.57;3.25;;;22.30;71.10;;;;;;5067514;28;20364;-60
2023/01/16 12:00:46;;;;;;;17.67;3.78;;;22.20;70.90;;;;;;5068894;28;20245;-59
2023/01/16 12:03:56;;;;;;;10.65;2.97;;;22.30;70.90;;;;;;5070525;28;20272;-59
2023/01/16 12:06:53;;;;;;;18.02;3.17;;;22.30;70.90;;;;;;5049767;28;20200;-59
2023/01/16 12:09:54;;;;;;;17.50;2.92;;;22.40;70.80;;;;;;5049601;28;20212;-59
2023/01/16 12:16:12;;;;;;;11.32;3.20;;;22.30;70.60;;;;;;5052519;28;20670;-60
2023/01/16 12:19:29;;;;;;;12.57;2.97;;;22.40;70.60;;;;;;5069268;28;20339;-59
2023/01/16 12:22:27;;;;;;;14.20;4.07;;;22.30;70.40;;;;;;5070557;28;20695;-60
2023/01/16 12:25:25;;;;;;;13.05;3.00;;;22.30;70.40;;;;;;5071374;28;20763;-61
2023/01/16 12:28:25;;;;;;;15.32;3.30;;;22.30;70.30;;;;;;5064209;28;20294;-59
2023/01/16 12:31:34;;;;;;;15.63;3.50;;;22.30;70.30;;;;;;5071579;28;20207;-60
2023/01/16 12:34:37;;;;;;;13.35;3.00;;;22.30;70.40;;;;;;5065388;28;20205;-59
2023/01/16 12:37:39;;;;;;;14.32;2.83;;;22.30;70.60;;;;;;5071355;28;20212;-57
2023/01/16 12:40:43;;;;;;;10.52;2.78;;;22.30;70.40;;;;;;5068681;28;20685;-58
2023/01/16 12:43:37;;;;;;;65.80;8.32;;;22.30;70.30;;;;;;5071924;28;20189;-59
2023/01/16 12:46:33;;;;;;;63.60;10.73;;;22.30;70.40;;;;;;5074074;28;20218;-59
2023/01/16 12:49:38;;;;;;;286.90;39.55;;;22.30;70.50;;;;;;5076077;28;20299;-56
2023/01/16 12:52:40;;;;;;;85.93;13.23;;;22.30;70.40;;;;;;5075427;28;20213;-58
2023/01/16 12:55:42;;;;;;;33.72;6.35;;;22.30;70.50;;;;;;5074968;28;20272;-58
2023/01/16 12:58:45;;;;;;;28.52;5.28;;;22.30;70.40;;;;;;5073632;28;20240;-58
2023/01/16 13:01:38;;;;;;;25.67;4.00;;;22.40;70.50;;;;;;5073382;28;20281;-58
2023/01/16 13:04:29;;;;;;;20.63;3.88;;;22.40;70.50;;;;;;5073037;28;20210;-60
2023/01/16 13:07:18;;;;;;;13.38;2.85;;;22.30;70.30;;;;;;5073193;28;20281;-59
2023/01/16 13:13:25;;;;;;;14.77;3.47;;;22.30;70.00;;;;;;5075717;28;20219;-59
2023/01/16 13:16:18;;;;;;;14.77;2.85;;;22.40;70.10;;;;;;5074845;28;20306;-59
2023/01/16 13:19:12;;;;;;;15.85;2.70;;;22.40;70.10;;;;;;5073340;28;20212;-59
2023/01/16 13:22:06;;;;;;;14.05;3.45;;;22.30;70.30;;;;;;5073973;28;20577;-59
2023/01/16 13:25:01;;;;;;;11.75;2.83;;;22.30;70.00;;;;;;5073646;28;20205;-59
2023/01/16 13:27:55;;;;;;;12.98;3.05;;;22.40;70.10;;;;;;5074944;28;20216;-59
2023/01/16 13:30:46;;;;;;;8.70;2.60;;;22.40;70.20;;;;;;5074880;28;20279;-59
2023/01/16 13:33:39;;;;;;;19.75;2.70;;;22.40;70.00;;;;;;5074124;28;20213;-59
2023/01/16 13:37:05;;;;;;;14.30;2.83;;;22.40;70.10;;;;;;5072524;28;20205;-59
2023/01/16 13:40:12;;;;;;;6.32;2.13;;;22.40;70.00;;;;;;5074696;28;20279;-61
2023/01/16 13:46:08;;;;;;;9.23;2.60;;;22.40;70.00;;;;;;5074627;28;20742;-59
2023/01/16 13:49:00;;;;;;;11.68;2.65;;;22.50;70.30;;;;;;5074484;28;20228;-59
2023/01/16 13:51:50;;;;;;;14.77;3.17;;;22.50;70.10;;;;;;5074500;28;20240;-59
2023/01/16 13:54:43;;;;;;;12.20;2.60;;;22.50;70.00;;;;;;5074055;28;20640;-59
2023/01/16 13:57:31;;;;;;;9.27;2.97;;;22.50;70.00;;;;;;5074280;28;20663;-59
2023/01/16 14:00:20;;;;;;;11.82;2.65;;;22.50;70.10;;;;;;5074465;28;20338;-59
2023/01/16 14:03:21;;;;;;;7.10;2.63;;;22.50;70.00;;;;;;5075111;28;20677;-59
2023/01/16 14:06:21;;;;;;;13.68;2.47;;;22.50;70.00;;;;;;5074525;28;20251;-59
2023/01/16 14:09:20;;;;;;;12.05;2.15;;;22.50;70.00;;;;;;5073940;28;20307;-59
2023/01/16 14:12:20;;;;;;;13.82;3.22;;;22.50;69.90;;;;;;5074504;28;20209;-59
2023/01/16 14:18:37;;;;;;;13.38;2.58;;;22.50;69.80;;;;;;5074479;28;20227;-66
2023/01/16 14:21:27;;;;;;;15.57;2.97;;;22.50;69.80;;;;;;5075096;28;20200;-60
2023/01/16 14:24:18;;;;;;;7.35;1.90;;;22.50;69.80;;;;;;5071573;28;20284;-60
2023/01/16 14:27:06;;;;;;;6.75;1.95;;;22.70;82.90;;;;;;5072160;28;20208;-59
2023/01/16 14:29:59;;;;;;;10.70;2.22;;;22.60;69.80;;;;;;5073477;28;20232;-60
2023/01/16 14:32:52;;;;;;;14.25;2.53;;;22.50;69.50;;;;;;5070131;28;20266;-60
2023/01/16 14:35:49;;;;;;;13.45;1.90;;;22.50;69.50;;;;;;5072271;28;20307;-60
2023/01/16 14:38:37;;;;;;;11.80;2.78;;;22.60;69.50;;;;;;5068390;28;20271;-60
2023/01/16 14:57:40;;;;;;;7.70;2.20;;;22.60;69.30;;;;;;5070160;28;20234;-58
2023/01/16 15:00:30;;;;;;;11.15;2.72;;;22.60;69.20;;;;;;5072785;28;20197;-60
2023/01/16 15:03:24;;;;;;;10.85;2.03;;;22.60;69.20;;;;;;5074137;28;20271;-59
2023/01/16 15:06:13;;;;;;;6.90;1.77;;;22.70;69.30;;;;;;5074473;28;20208;-59
2023/01/16 15:09:04;;;;;;;14.90;2.88;;;22.60;69.20;;;;;;5074121;28;20830;-58
2023/01/16 15:11:58;;;;;;;13.73;1.95;;;22.60;69.20;;;;;;5072729;28;20223;-58
2023/01/16 15:14:54;;;;;;;10.07;1.92;;;22.60;69.10;;;;;;5072490;28;20216;-58
2023/01/16 15:23:57;;;;;;;5.35;1.73;;;22.50;68.80;;;;;;5056606;28;20209;-58
2023/01/16 15:26:55;;;;;;;9.23;2.55;;;22.60;69.00;;;;;;5073113;28;20266;-58
2023/01/16 15:29:52;;;;;;;12.20;2.15;;;22.60;69.00;;;;;;5053838;28;20305;-58
2023/01/16 15:32:54;;;;;;;9.38;1.88;;;22.60;69.00;;;;;;5055053;28;20671;-57
2023/01/16 15:35:42;;;;;;;7.85;2.42;;;22.60;69.10;;;;;;5073191;28;20204;-58
2023/01/16 15:38:36;;;;;;;12.85;2.65;;;22.60;68.90;;;;;;5073287;28;20220;-58
2023/01/16 15:47:57;;;;;;;9.27;2.42;;;22.60;68.80;;;;;;5072212;28;20216;-58
2023/01/16 15:50:55;;;;;;;5.88;2.05;;;22.60;68.70;;;;;;5071851;28;20192;-58
2023/01/16 15:53:48;;;;;;;11.23;2.40;;;22.60;68.60;;;;;;5072215;28;20698;-58
2023/01/16 15:56:41;;;;;;;6.38;1.55;;;22.60;68.70;;;;;;5071763;28;20224;-58
2023/01/16 15:59:51;;;;;;;10.70;1.77;;;22.60;68.50;;;;;;5072647;28;20279;-58
2023/01/16 16:02:44;;;;;;;7.47;2.40;;;22.60;68.60;;;;;;5071274;28;20301;-58
2023/01/16 16:05:35;;;;;;;5.18;1.50;;;22.40;68.40;;;;;;5071003;28;20275;-58
2023/01/16 16:08:25;;;;;;;9.77;1.70;;;22.50;68.80;;;;;;5071286;28;20219;-58
2023/01/16 16:20:40;;;;;;;6.78;2.60;;;22.50;68.40;;;;;;5071832;28;20236;-59
2023/01/16 16:23:28;;;;;;;8.88;1.83;;;22.60;68.30;;;;;;5069034;28;20193;-58
2023/01/16 16:26:19;;;;;;;9.90;1.88;;;22.60;68.20;;;;;;5071116;28;20192;-58
2023/01/16 16:29:07;;;;;;;6.57;1.35;;;22.60;68.20;;;;;;5078237;28;20216;-63
2023/01/16 16:32:02;;;;;;;7.80;1.20;;;22.60;68.10;;;;;;5072374;28;20247;-59
2023/01/16 16:34:55;;;;;;;11.95;2.28;;;22.60;68.10;;;;;;5072680;28;20228;-58